Greenville, SC

10:34 AM EST on February 26, 2017 (GMT -0500)
MD9030 | | Change Station

Elev 961 ft 34.84 °N, 82.40 °W | Updated 16 minutes ago

Clear
Clear
43.0 °F
Feels Like 43 °F
N
1.0
Wind Variable Wind from NW

Today
High -- | Low -- °F
--% Chance of Precip.
Yesterday
High -- | Low -- °F
Precip. -- in
Pressure 30.22 in
Visibility 10.0 miles
Clouds Clear
Windchill 43 °F
Dew Point 22 °F
Humidity 43%
Rainfall 0.00 in
Snow Depth Not available.
7:02 AM 6:23 PM
New Moon, 0% visible
METAR KGMU 261453Z VRB04KT 10SM CLR 07/M07 A3021 RMK AO2 SLP232 T00721072 51030
Pressure 30.22 in
Visibility 10.0 miles
Clouds Clear
Windchill 43 °F
Dew Point 22 °F
Humidity 43%
Rainfall 0.00 in
Snow Depth Not available.
7:02 AM 6:23 PM
New Moon, 0% visible
METAR KGMU 261453Z VRB04KT 10SM CLR 07/M07 A3021 RMK AO2 SLP232 T00721072 51030

Get Your Daily Forecast Email!

Thanks for signing up!

Be on the lookout for a verification email in your inbox.

You'll start receiving the daily forecast at 8 AM.

×

10-Day Weather Forecast

Almanac

Astronomy

Feb. 26, 2017 Rise Set
Actual Time
Civil Twilight
Nautical Twilight
Astronomical Twilight
Moon
Length of Visible Light
Length of Day
Tomorrow will be .
, % of the Moon is Illuminated

Today's Extremes

State Highs State Lows

Community

WunderPhotos

Upload Photos

1,962,540 photos uploaded!

WunderBlog® & News

Nearby

Air Quality

  Air Quality AQ Index Pollutant
Not available.

Snow Depth

Station Depth Elevation

Earthquake Activity

City Distance Mag. Time & Date
Minimum magnitude displayed is 2.5.

Coastal Water Temperatures

Place Temperature

Stations

Nearby Weather Stations

Station Location Temp. Windchill Dew Point Humidity Wind Precip. Elev Updated Type
                   

Watches & Warnings

There are currently no watches in effect.